.
WxDataArchive / Data Records for 2007-04-25
2007-04-24 April 2007 2007-04-26

Data Records for Wednesday, 25 April 2007

Time	Temp	Chill	HIndex	Humid	Dewpt	 Wind 	HiWind	WindDir	Rain 	Barom 
-----	----	-----	------	-----	-----	------	------	-------	-----	----- 
00:00	55.9	55.9	55.9	55	40.0	3	7	112	0.00	29.963 
00:05	55.9	55.9	55.9	54	39.5	3	7	112	0.00	29.963 
00:10	55.9	55.9	55.9	54	39.5	4	10	112	0.00	29.959 
00:15	55.7	55.7	55.7	52	38.3	4	11	90	0.00	29.963 
00:20	55.7	55.7	55.7	52	38.3	4	8	112	0.00	29.966 
00:25	55.7	55.7	55.7	52	38.3	3	7	90	0.00	29.969 
00:30	55.7	55.7	55.7	51	37.9	3	7	90	0.00	29.967 
00:35	55.7	55.7	55.7	51	37.9	3	9	90	0.00	29.971 
00:40	55.7	55.7	55.7	50	37.3	4	7	90	0.00	29.967 
00:45	55.7	55.7	55.7	51	37.9	3	7	112	0.00	29.965 
00:50	55.7	55.7	55.7	50	37.3	3	6	112	0.00	29.965 
00:55	55.7	55.7	55.7	50	37.3	4	10	112	0.00	29.962 
01:00	55.6	55.6	55.6	50	37.3	4	6	112	0.00	29.961 
01:05	55.6	55.6	55.6	50	37.3	3	6	90	0.00	29.959 
01:10	55.4	55.4	55.4	51	37.6	3	7	112	0.00	29.955 
01:15	55.4	55.4	55.4	51	37.6	3	8	112	0.00	29.949 
01:20	55.3	55.3	55.3	52	38.0	3	7	90	0.00	29.944 
01:25	55.1	55.1	55.1	53	38.3	4	9	90	0.00	29.933 
01:30	55.0	55.0	55.0	52	37.7	6	11	112	0.00	29.929 
01:35	54.8	54.8	54.8	53	38.0	5	12	90	0.00	29.929 
01:40	54.8	54.8	54.8	53	38.0	5	10	90	0.00	29.926 
01:45	54.7	54.7	54.7	52	37.4	5	12	90	0.00	29.926 
01:50	54.5	54.5	54.5	52	37.2	5	10	112	0.00	29.918 
01:55	54.4	54.4	54.4	53	37.6	5	11	112	0.00	29.916 
02:00	54.2	54.2	54.2	53	37.4	4	10	90	0.00	29.915 
02:05	54.1	54.1	54.1	52	36.9	5	11	90	0.00	29.913 
02:10	54.1	54.1	54.1	52	36.9	5	14	112	0.00	29.914 
02:15	53.9	53.9	53.9	53	37.2	5	12	90	0.00	29.914 
02:20	53.8	53.8	53.8	53	37.1	5	12	90	0.00	29.916 
02:25	53.8	53.8	53.8	54	37.5	5	13	112	0.00	29.928 
02:30	53.6	53.6	53.6	54	37.4	4	11	112	0.00	29.936 
02:35	53.5	53.5	53.5	58	39.1	3	7	112	0.00	29.943 
02:40	53.1	53.1	53.1	62	40.4	3	7	112	0.00	29.942 
02:45	52.5	52.5	52.5	64	40.7	3	6	90	0.01	29.934 
02:50	51.7	51.7	51.7	68	41.5	3	5	112	0.00	29.931 
02:55	51.3	51.3	51.3	71	42.2	3	11	135	0.00	29.934 
03:00	51.0	51.0	51.0	71	41.9	3	9	112	0.00	29.932 
03:05	50.7	50.7	50.7	73	42.4	4	9	90	0.01	29.921 
03:10	50.2	50.2	50.2	75	42.6	4	10	112	0.00	29.910 
03:15	49.8	49.8	49.8	77	42.9	3	9	90	0.01	29.905 
03:20	49.6	49.6	49.6	77	42.7	3	6	112	0.00	29.905 
03:25	49.6	47.7	49.6	75	42.0	5	10	112	0.01	29.923 
03:30	49.6	48.4	49.6	77	42.7	4	9	112	0.00	29.916 
03:35	49.5	49.5	49.5	79	43.3	2	6	112	0.00	29.935 
03:40	49.4	49.4	49.4	79	43.2	2	5	112	0.01	29.948 
03:45	49.1	47.8	49.1	81	43.5	4	7	112	0.01	29.907 
03:50	48.8	48.8	48.8	82	43.6	3	9	112	0.01	29.915 
03:55	48.6	48.6	48.6	83	43.7	3	7	112	0.01	29.922 
04:00	48.3	46.9	48.3	84	43.7	4	7	90	0.02	29.918 
04:05	48.2	46.1	48.2	85	43.9	5	12	112	0.01	29.901 
04:10	48.0	48.0	48.0	86	44.0	3	6	112	0.00	29.920 
04:15	48.0	48.0	48.0	87	44.3	2	7	112	0.01	29.912 
04:20	47.9	47.9	47.9	87	44.2	1	4	135	0.04	29.924 
04:25	47.9	47.9	47.9	89	44.8	2	6	90	0.01	29.909 
04:30	47.7	46.2	47.7	89	44.6	4	9	112	0.00	29.906 
04:35	47.7	46.2	47.7	88	44.3	4	9	112	0.00	29.916 
04:40	47.7	46.2	47.7	88	44.3	4	9	112	0.00	29.902 
04:45	47.7	46.2	47.7	88	44.3	4	10	112	0.03	29.912 
04:50	47.6	46.1	47.6	89	44.5	4	9	90	0.02	29.905 
04:55	47.4	45.9	47.4	90	44.6	4	12	112	0.02	29.901 
05:00	47.3	45.8	47.3	90	44.5	4	9	112	0.01	29.895 
05:05	47.1	44.2	47.1	90	44.3	6	12	90	0.00	29.899 
05:10	47.1	44.2	47.1	90	44.3	6	11	112	0.00	29.902 
05:15	47.1	44.2	47.1	90	44.3	6	12	90	0.01	29.896 
05:20	47.1	44.8	47.1	90	44.3	5	11	112	0.00	29.890 
05:25	47.1	43.7	47.1	90	44.3	7	12	112	0.00	29.886 
05:30	47.1	43.7	47.1	90	44.3	7	15	90	0.00	29.883 
05:35	47.0	42.7	47.0	89	43.9	9	16	112	0.00	29.887 
05:40	47.0	42.7	47.0	89	43.9	9	15	112	0.00	29.886 
05:45	47.0	43.6	47.0	89	43.9	7	12	112	0.00	29.884 
05:50	47.0	43.1	47.0	88	43.6	8	17	112	0.00	29.884 
05:55	47.1	42.8	47.1	86	43.1	9	19	90	0.00	29.885 
06:00	47.3	43.5	47.3	86	43.3	8	14	112	0.00	29.880 
06:05	47.3	43.1	47.3	85	43.0	9	22	90	0.00	29.878 
06:10	47.4	43.6	47.4	86	43.4	8	16	112	0.00	29.874 
06:15	47.4	44.1	47.4	85	43.1	7	15	112	0.00	29.882 
06:20	47.3	43.9	47.3	87	43.6	7	15	112	0.04	29.884 
06:25	47.0	44.1	47.0	88	43.6	6	11	90	0.01	29.890 
06:30	46.8	43.3	46.8	89	43.7	7	13	90	0.00	29.890 
06:35	46.8	43.9	46.8	90	44.0	6	14	112	0.01	29.891 
06:40	46.8	43.9	46.8	90	44.0	6	12	112	0.02	29.904 
06:45	46.7	44.3	46.7	91	44.2	5	15	112	0.03	29.902 
06:50	46.5	43.5	46.5	92	44.3	6	13	112	0.02	29.893 
06:55	46.5	43.5	46.5	92	44.3	6	11	112	0.02	29.890 
07:00	46.4	43.4	46.4	92	44.2	6	14	112	0.02	29.887 
07:05	46.4	42.9	46.4	92	44.2	7	14	112	0.04	29.894 
07:10	46.2	42.6	46.2	93	44.3	7	15	112	0.05	29.892 
07:15	46.2	42.6	46.2	93	44.3	7	16	90	0.03	29.883 
07:20	46.2	42.1	46.2	93	44.3	8	17	112	0.02	29.885 
07:25	46.1	42.0	46.1	94	44.5	8	18	112	0.02	29.891 
07:30	46.1	43.0	46.1	94	44.5	6	15	112	0.03	29.892 
07:35	46.1	42.5	46.1	94	44.5	7	15	112	0.02	29.892 
07:40	45.8	42.1	45.8	94	44.2	7	17	112	0.03	29.883 
07:45	45.7	41.1	45.7	93	43.8	9	19	112	0.03	29.880 
07:50	45.5	41.8	45.5	94	43.9	7	17	112	0.02	29.879 
07:55	45.5	41.3	45.5	94	43.9	8	15	112	0.02	29.880 
08:00	45.7	42.0	45.7	94	44.1	7	16	112	0.04	29.884 
08:05	45.5	41.3	45.5	94	43.9	8	15	112	0.05	29.880 
08:10	45.7	42.0	45.7	94	44.1	7	19	112	0.05	29.881 
08:15	45.7	41.5	45.7	95	44.4	8	13	90	0.03	29.880 
08:20	45.8	42.1	45.8	95	44.4	7	12	112	0.01	29.880 
08:25	46.0	42.9	46.0	95	44.6	6	15	90	0.01	29.883 
08:30	46.1	43.0	46.1	95	44.7	6	14	112	0.00	29.886 
08:35	46.1	42.5	46.1	96	45.0	7	15	112	0.01	29.880 
08:40	45.8	40.8	45.8	95	44.4	10	17	112	0.01	29.882 
08:45	45.5	41.3	45.5	94	43.9	8	16	112	0.01	29.883 
08:50	45.4	41.2	45.4	94	43.8	8	23	112	0.01	29.890 
08:55	45.2	40.5	45.2	94	43.6	9	17	90	0.01	29.894 
09:00	45.2	41.4	45.2	94	43.6	7	16	90	0.00	29.889 
09:05	45.2	40.9	45.2	94	43.6	8	15	112	0.01	29.886 
09:10	45.2	40.9	45.2	94	43.6	8	17	112	0.00	29.886 
09:15	45.2	41.4	45.2	94	43.6	7	16	112	0.01	29.884 
09:20	45.1	40.4	45.1	94	43.5	9	18	112	0.01	29.884 
09:25	45.2	40.5	45.2	94	43.6	9	16	112	0.01	29.883 
09:30	45.2	41.4	45.2	94	43.6	7	15	112	0.00	29.884 
09:35	45.2	41.4	45.2	94	43.6	7	15	112	0.00	29.881 
09:40	45.2	42.0	45.2	94	43.6	6	16	112	0.00	29.882 
09:45	45.2	40.5	45.2	94	43.6	9	18	112	0.01	29.878 
09:50	45.2	40.9	45.2	93	43.3	8	19	112	0.00	29.876 
09:55	45.4	42.8	45.4	93	43.5	5	12	112	0.00	29.879 
10:00	45.2	42.6	45.2	93	43.3	5	16	112	0.01	29.881 
10:05	45.2	40.9	45.2	93	43.3	8	22	112	0.00	29.882 
10:10	45.2	41.4	45.2	93	43.3	7	19	112	0.00	29.878 
10:15	45.2	42.0	45.2	93	43.3	6	15	112	0.00	29.874 
10:20	45.2	42.0	45.2	93	43.3	6	15	112	0.01	29.872 
10:25	45.1	41.8	45.1	94	43.5	6	17	112	0.00	29.871 
10:30	44.9	40.6	44.9	94	43.3	8	16	112	0.01	29.871 
10:35	44.9	40.1	44.9	94	43.3	9	18	112	0.01	29.877 
10:40	44.9	40.1	44.9	94	43.3	9	18	112	0.01	29.875 
10:45	45.1	41.3	45.1	94	43.5	7	17	112	0.00	29.871 
10:50	45.1	41.3	45.1	94	43.5	7	19	112	0.01	29.871 
10:55	45.1	41.8	45.1	94	43.5	6	15	112	0.01	29.878 
11:00	45.2	40.5	45.2	94	43.6	9	19	112	0.00	29.880 
11:05	45.2	40.9	45.2	94	43.6	8	15	112	0.00	29.883 
11:10	45.4	41.2	45.4	93	43.5	8	16	112	0.00	29.880 
11:15	45.4	42.2	45.4	93	43.5	6	17	112	0.01	29.879 
11:20	45.4	41.2	45.4	93	43.5	8	14	112	0.01	29.878 
11:25	45.4	41.6	45.4	94	43.8	7	13	112	0.01	29.875 
11:30	45.5	41.8	45.5	94	43.9	7	13	112	0.00	29.869 
11:35	45.7	42.0	45.7	94	44.1	7	14	112	0.01	29.869 
11:40	45.7	42.0	45.7	94	44.1	7	19	112	0.00	29.869 
11:45	45.7	42.0	45.7	94	44.1	7	15	112	0.01	29.869 
11:50	45.7	42.0	45.7	94	44.1	7	15	90	0.02	29.869 
11:55	45.8	42.1	45.8	95	44.4	7	13	112	0.01	29.868 
12:00	45.8	42.7	45.8	95	44.4	6	14	112	0.01	29.868 
12:05	45.8	42.1	45.8	95	44.4	7	15	112	0.01	29.868 
12:10	45.8	41.7	45.8	95	44.4	8	19	90	0.01	29.868 
12:15	46.0	42.9	46.0	95	44.6	6	15	112	0.00	29.868 
12:20	46.0	42.4	46.0	95	44.6	7	13	90	0.00	29.869 
12:25	46.0	42.4	46.0	95	44.6	7	16	112	0.00	29.869 
12:30	46.0	42.9	46.0	95	44.6	6	14	112	0.00	29.870 
12:35	46.1	43.6	46.1	95	44.7	5	12	90	0.00	29.878 
12:40	46.1	42.5	46.1	94	44.5	7	16	112	0.01	29.883 
12:45	46.1	43.6	46.1	94	44.5	5	12	112	0.00	29.883 
12:50	46.1	42.0	46.1	94	44.5	8	14	112	0.00	29.884 
12:55	46.1	42.5	46.1	94	44.5	7	14	112	0.00	29.885 
13:00	46.1	42.5	46.1	94	44.5	7	12	112	0.00	29.882 
13:05	46.2	42.6	46.2	94	44.6	7	11	112	0.00	29.885 
13:10	46.2	42.1	46.2	94	44.6	8	14	90	0.00	29.888 
13:15	46.2	42.6	46.2	94	44.6	7	15	90	0.00	29.890 
13:20	46.4	42.9	46.4	94	44.8	7	15	112	0.00	29.889 
13:25	46.5	43.0	46.5	94	44.9	7	13	112	0.00	29.895 
13:30	46.5	43.0	46.5	93	44.6	7	15	112	0.00	29.898 
13:35	46.7	43.2	46.7	93	44.8	7	17	112	0.00	29.896 
13:40	46.8	44.5	46.8	94	45.2	5	12	90	0.00	29.900 
13:45	46.8	43.9	46.8	93	44.9	6	12	112	0.00	29.901 
13:50	46.7	43.2	46.7	92	44.5	7	16	90	0.00	29.901 
13:55	46.5	42.5	46.5	93	44.6	8	17	112	0.00	29.898 
14:00	46.7	43.7	46.7	93	44.8	6	12	90	0.00	29.901 
14:05	46.7	43.7	46.7	94	45.1	6	14	112	0.00	29.903 
14:10	46.7	43.7	46.7	94	45.1	6	15	90	0.00	29.903 
14:15	46.7	43.2	46.7	93	44.8	7	15	90	0.00	29.907 
14:20	46.7	44.3	46.7	93	44.8	5	11	112	0.00	29.907 
14:25	46.7	43.7	46.7	93	44.8	6	12	112	0.00	29.906 
14:30	46.5	43.5	46.5	93	44.6	6	12	112	0.00	29.908 
14:35	46.5	44.1	46.5	94	44.9	5	10	90	0.00	29.914 
14:40	46.5	46.5	46.5	94	44.9	3	11	90	0.00	29.916 
14:45	46.5	44.8	46.5	94	44.9	4	10	112	0.00	29.907 
14:50	46.7	44.3	46.7	95	45.3	5	11	112	0.00	29.907 
14:55	46.5	44.1	46.5	95	45.1	5	15	90	0.01	29.910 
15:00	46.5	44.8	46.5	95	45.1	4	9	112	0.00	29.917 
15:05	46.5	44.8	46.5	95	45.1	4	11	112	0.00	29.921 
15:10	46.5	43.5	46.5	95	45.1	6	11	112	0.00	29.921 
15:15	46.4	44.7	46.4	95	45.0	4	10	112	0.00	29.928 
15:20	46.4	44.7	46.4	95	45.0	4	10	112	0.00	29.932 
15:25	46.4	44.7	46.4	95	45.0	4	10	90	0.00	29.927 
15:30	46.4	43.4	46.4	95	45.0	6	13	112	0.00	29.921 
15:35	46.4	44.0	46.4	95	45.0	5	13	112	0.00	29.921 
15:40	46.4	43.4	46.4	95	45.0	6	13	112	0.00	29.922 
15:45	46.2	43.1	46.2	95	44.8	6	12	112	0.00	29.928 
15:50	46.4	44.7	46.4	95	45.0	4	9	112	0.00	29.929 
15:55	46.4	46.4	46.4	95	45.0	3	9	112	0.00	29.928 
16:00	46.4	44.7	46.4	95	45.0	4	14	112	0.00	29.925 
16:05	46.4	43.4	46.4	95	45.0	6	15	90	0.00	29.931 
16:10	46.5	44.1	46.5	95	45.1	5	14	112	0.00	29.926 
16:15	46.5	43.5	46.5	95	45.1	6	15	112	0.00	29.923 
16:20	46.7	45.1	46.7	95	45.3	4	11	90	0.00	29.927 
16:25	46.7	44.3	46.7	94	45.1	5	15	112	0.00	29.924 
16:30	46.7	43.7	46.7	94	45.1	6	13	112	0.00	29.928 
16:35	46.7	43.2	46.7	94	45.1	7	17	90	0.00	29.922 
16:40	46.8	44.5	46.8	94	45.2	5	11	112	0.00	29.923 
16:45	46.8	45.2	46.8	94	45.2	4	13	112	0.00	29.942 
16:50	46.8	45.2	46.8	93	44.9	4	11	112	0.00	29.939 
16:55	46.7	43.7	46.7	92	44.5	6	12	112	0.00	29.938 
17:00	46.7	43.7	46.7	92	44.5	6	16	112	0.00	29.937 
17:05	46.8	45.2	46.8	92	44.6	4	10	112	0.00	29.934 
17:10	46.8	44.5	46.8	92	44.6	5	11	112	0.00	29.935 
17:15	46.8	43.9	46.8	92	44.6	6	12	112	0.00	29.933 
17:20	46.8	44.5	46.8	92	44.6	5	11	112	0.00	29.932 
17:25	46.8	46.8	46.8	92	44.6	3	7	90	0.00	29.927 
17:30	46.8	44.5	46.8	92	44.6	5	12	112	0.00	29.924 
17:35	46.8	43.9	46.8	92	44.6	6	15	112	0.00	29.924 
17:40	47.0	44.7	47.0	92	44.8	5	12	90	0.00	29.927 
17:45	47.0	44.7	47.0	91	44.5	5	16	112	0.00	29.928 
17:50	47.0	44.1	47.0	91	44.5	6	13	112	0.00	29.925 
17:55	47.1	44.2	47.1	91	44.6	6	14	112	0.00	29.925 
18:00	47.1	44.8	47.1	91	44.6	5	17	112	0.00	29.925 
18:05	47.1	44.2	47.1	91	44.6	6	17	112	0.00	29.926 
18:10	47.1	44.2	47.1	91	44.6	6	11	112	0.00	29.922 
18:15	47.1	44.8	47.1	91	44.6	5	16	90	0.00	29.929 
18:20	46.8	43.3	46.8	91	44.3	7	14	112	0.00	29.933 
18:25	46.8	43.9	46.8	91	44.3	6	15	90	0.00	29.935 
18:30	46.8	43.9	46.8	91	44.3	6	13	90	0.00	29.938 
18:35	46.8	43.9	46.8	91	44.3	6	13	90	0.00	29.938 
18:40	46.8	44.5	46.8	91	44.3	5	12	112	0.00	29.939 
18:45	46.8	43.9	46.8	91	44.3	6	13	112	0.00	29.933 
18:50	46.8	45.2	46.8	91	44.3	4	11	90	0.00	29.932 
18:55	46.7	43.7	46.7	91	44.2	6	13	112	0.00	29.930 
19:00	46.5	43.5	46.5	91	44.0	6	12	112	0.00	29.933 
19:05	46.5	44.8	46.5	91	44.0	4	10	112	0.00	29.937 
19:10	46.5	44.8	46.5	91	44.0	4	10	112	0.00	29.940 
19:15	46.5	43.5	46.5	90	43.7	6	14	90	0.00	29.938 
19:20	46.5	43.5	46.5	90	43.7	6	12	90	0.00	29.927 
19:25	46.7	44.3	46.7	91	44.2	5	14	112	0.00	29.923 
19:30	46.5	43.5	46.5	90	43.7	6	13	112	0.00	29.923 
19:35	46.5	43.5	46.5	90	43.7	6	14	112	0.00	29.925 
19:40	46.5	44.8	46.5	91	44.0	4	11	90	0.00	29.921 
19:45	46.5	44.8	46.5	91	44.0	4	10	112	0.00	29.924 
19:50	46.4	46.4	46.4	91	43.9	3	9	90	0.00	29.924 
19:55	46.4	44.7	46.4	91	43.9	4	11	90	0.00	29.924 
20:00	46.4	46.4	46.4	91	43.9	3	10	90	0.00	29.923 
20:05	46.4	44.7	46.4	91	43.9	4	7	112	0.00	29.924 
20:10	46.2	42.6	46.2	90	43.4	7	17	112	0.00	29.921 
20:15	46.2	42.1	46.2	90	43.4	8	15	112	0.00	29.922 
20:20	46.2	43.1	46.2	90	43.4	6	12	112	0.00	29.924 
20:25	46.2	43.1	46.2	90	43.4	6	14	112	0.00	29.924 
20:30	46.2	44.5	46.2	90	43.4	4	11	112	0.00	29.925 
20:35	46.2	46.2	46.2	91	43.7	3	11	112	0.00	29.928 
20:40	46.2	44.5	46.2	91	43.7	4	11	90	0.00	29.934 
20:45	46.1	44.4	46.1	91	43.6	4	9	90	0.00	29.931 
20:50	46.1	43.0	46.1	91	43.6	6	12	112	0.00	29.926 
20:55	46.1	43.6	46.1	91	43.6	5	11	90	0.00	29.928 
21:00	46.1	43.6	46.1	90	43.3	5	11	112	0.00	29.927 
21:05	46.1	43.6	46.1	90	43.3	5	11	112	0.00	29.927 
21:10	46.1	43.6	46.1	90	43.3	5	11	112	0.00	29.929 
21:15	46.1	43.0	46.1	90	43.3	6	12	112	0.00	29.926 
21:20	46.0	42.9	46.0	90	43.2	6	11	112	0.00	29.925 
21:25	46.0	43.5	46.0	90	43.2	5	12	90	0.00	29.924 
21:30	45.8	42.7	45.8	90	43.0	6	12	112	0.00	29.915 
21:35	45.8	42.7	45.8	90	43.0	6	13	112	0.00	29.914 
21:40	45.7	43.2	45.7	90	42.9	5	11	112	0.00	29.914 
21:45	45.7	43.9	45.7	91	43.2	4	7	112	0.00	29.919 
21:50	45.7	43.2	45.7	90	42.9	5	11	112	0.00	29.924 
21:55	45.7	42.5	45.7	89	42.6	6	14	90	0.00	29.926 
22:00	45.7	42.5	45.7	89	42.6	6	13	90	0.00	29.926 
22:05	45.7	42.0	45.7	89	42.6	7	16	90	0.00	29.927 
22:10	45.7	43.2	45.7	89	42.6	5	11	112	0.00	29.927 
22:15	45.7	43.2	45.7	89	42.6	5	10	90	0.00	29.925 
22:20	45.5	42.9	45.5	89	42.4	5	11	90	0.00	29.923 
22:25	45.5	42.9	45.5	89	42.4	5	11	112	0.00	29.916 
22:30	45.5	41.8	45.5	89	42.4	7	15	112	0.00	29.916 
22:35	45.4	42.2	45.4	89	42.3	6	15	90	0.00	29.920 
22:40	45.4	42.2	45.4	89	42.3	6	17	90	0.00	29.914 
22:45	45.4	42.8	45.4	89	42.3	5	10	112	0.00	29.912 
22:50	45.2	42.6	45.2	90	42.4	5	11	90	0.00	29.911 
22:55	45.2	42.6	45.2	90	42.4	5	12	90	0.00	29.912 
23:00	45.2	41.4	45.2	90	42.4	7	12	90	0.00	29.910 
23:05	45.2	42.0	45.2	90	42.4	6	14	112	0.00	29.902 
23:10	45.2	42.6	45.2	90	42.4	5	10	112	0.00	29.903 
23:15	45.2	42.0	45.2	90	42.4	6	11	90	0.00	29.903 
23:20	45.2	42.6	45.2	90	42.4	5	12	112	0.00	29.896 
23:25	45.2	42.6	45.2	90	42.4	5	12	112	0.00	29.896 
23:30	45.2	42.6	45.2	90	42.4	5	13	112	0.00	29.900 
23:35	45.2	42.6	45.2	90	42.4	5	11	112	0.00	29.896 
23:40	45.2	42.6	45.2	90	42.4	5	8	112	0.00	29.895 
23:45	45.2	42.6	45.2	90	42.4	5	12	112	0.00	29.897 
23:50	45.2	42.0	45.2	89	42.2	6	14	90	0.00	29.889 
23:55	45.2	42.0	45.2	89	42.2	6	12	112	0.00	29.890 

CoCoRaHS
IN-AL-39
A2 Web Hosting
Creative Commons License
GoDaddy
Look for:

loaded 2017-10-18 22:06:41 • last modified 2010-11-18 10:43:29
Privacy PolicyDisclaimer
• wx.awcolley.com is powered by PmWiki v.2002016 •
• all content (unless otherwise noted) © 2017 A W Colley